createdAt,value
2018-05-15T00:00:32.493Z,76.50
2018-05-15T00:03:02.124Z,76.16
2018-05-15T00:05:31.798Z,76.06
2018-05-15T00:08:01.455Z,75.81
2018-05-15T00:10:31.067Z,75.51
2018-05-15T00:13:00.686Z,75.67
2018-05-15T00:15:30.329Z,75.75
2018-05-15T00:17:59.988Z,75.94
2018-05-15T00:20:29.624Z,76.03
2018-05-15T00:22:59.256Z,76.13
2018-05-15T00:25:28.899Z,76.36
2018-05-15T00:27:58.510Z,76.75
2018-05-15T00:30:28.127Z,76.79
2018-05-15T00:32:57.741Z,77.25
2018-05-15T00:35:27.425Z,77.90
2018-05-15T00:37:57.036Z,78.42
2018-05-15T00:40:26.724Z,79.37
2018-05-15T00:42:56.351Z,79.04
2018-05-15T00:45:25.976Z,79.20
2018-05-15T00:47:55.675Z,79.71
2018-05-15T00:50:25.499Z,79.33
2018-05-15T00:52:55.121Z,79.93
2018-05-15T00:55:35.954Z,79.39
2018-05-15T00:58:05.596Z,79.10
2018-05-15T01:00:35.264Z,79.01
2018-05-15T01:03:04.888Z,79.15
2018-05-15T01:05:34.513Z,79.40
2018-05-15T01:08:04.146Z,79.55
2018-05-15T01:10:33.478Z,79.54
2018-05-15T01:13:03.118Z,79.43
2018-05-15T01:15:32.749Z,79.49
2018-05-15T01:18:02.369Z,80.03
2018-05-15T01:20:32.033Z,80.84
2018-05-15T01:23:01.663Z,81.47
2018-05-15T01:25:31.347Z,81.66
2018-05-15T01:28:00.704Z,81.83
2018-05-15T01:30:30.321Z,81.36
2018-05-15T01:32:59.686Z,80.94
2018-05-15T01:35:29.313Z,80.96
2018-05-15T01:37:58.982Z,80.88
2018-05-15T01:40:28.642Z,80.75
2018-05-15T01:42:58.282Z,80.71
2018-05-15T01:45:27.899Z,80.31
2018-05-15T01:47:57.523Z,80.25
2018-05-15T01:50:27.194Z,80.09
2018-05-15T01:52:56.815Z,79.81
2018-05-15T01:55:26.428Z,79.47
2018-05-15T01:57:56.056Z,79.34
2018-05-15T02:00:25.682Z,79.33
2018-05-15T02:02:55.348Z,79.06
2018-05-15T02:05:24.988Z,79.13
2018-05-15T02:07:54.613Z,79.19
2018-05-15T02:10:24.251Z,79.06
2018-05-15T02:12:53.655Z,78.93
2018-05-15T02:15:23.354Z,78.71
2018-05-15T02:17:52.990Z,78.85
2018-05-15T02:20:22.600Z,78.81
2018-05-15T02:22:52.217Z,79.28
2018-05-15T02:25:21.827Z,79.28
2018-05-15T02:27:51.489Z,79.35
2018-05-15T02:30:20.863Z,79.69
2018-05-15T02:32:50.715Z,78.98
2018-05-15T02:35:20.334Z,78.77
2018-05-15T02:37:49.961Z,78.31
2018-05-15T02:40:19.600Z,78.21
2018-05-15T02:42:49.239Z,77.92
2018-05-15T02:45:18.903Z,78.03
2018-05-15T02:47:48.532Z,77.67
2018-05-15T02:50:18.152Z,77.40
2018-05-15T02:52:47.776Z,77.77
2018-05-15T02:55:17.404Z,77.98
2018-05-15T02:57:46.758Z,78.29
2018-05-15T03:00:16.387Z,78.26
2018-05-15T03:02:46.016Z,77.74
2018-05-15T03:05:15.630Z,77.39
2018-05-15T03:07:44.976Z,77.31
2018-05-15T03:10:14.646Z,77.22
2018-05-15T03:12:44.284Z,77.26
2018-05-15T03:15:13.929Z,77.34
2018-05-15T03:17:43.275Z,77.62
2018-05-15T03:20:12.893Z,77.79
2018-05-15T03:22:42.554Z,77.72
2018-05-15T03:25:12.175Z,78.35
2018-05-15T03:27:41.800Z,78.56
2018-05-15T03:30:11.433Z,78.31
2018-05-15T03:32:41.054Z,78.24
2018-05-15T03:35:10.711Z,78.18
2018-05-15T03:37:40.364Z,78.11
2018-05-15T03:40:09.991Z,77.92
2018-05-15T03:42:39.390Z,77.65
2018-05-15T03:45:08.727Z,77.33
2018-05-15T03:47:38.406Z,76.87
2018-05-15T03:50:08.032Z,76.63
2018-05-15T03:52:37.389Z,76.35
2018-05-15T03:55:06.679Z,76.16
2018-05-15T03:57:36.338Z,76.04
2018-05-15T04:00:05.446Z,75.54
2018-05-15T04:02:46.070Z,75.33
2018-05-15T04:05:26.668Z,75.26
2018-05-15T04:08:01.328Z,75.28
2018-05-15T04:10:30.716Z,75.35
2018-05-15T04:13:02.085Z,75.39
2018-05-15T04:15:31.474Z,75.65
2018-05-15T04:18:01.093Z,75.61
2018-05-15T04:20:30.199Z,75.73
2018-05-15T04:22:59.831Z,75.82
2018-05-15T04:25:29.468Z,75.69
2018-05-15T04:27:59.151Z,75.74
2018-05-15T04:30:28.783Z,75.64
2018-05-15T04:32:58.446Z,75.46
2018-05-15T04:35:28.071Z,75.56
2018-05-15T04:37:57.413Z,75.84
2018-05-15T04:40:27.070Z,75.08
2018-05-15T04:42:56.700Z,74.91
2018-05-15T04:45:26.360Z,74.88
2018-05-15T04:47:55.990Z,74.65
2018-05-15T04:50:25.624Z,74.25
2018-05-15T04:52:55.280Z,73.71
2018-05-15T04:55:24.908Z,72.74
2018-05-15T04:57:54.564Z,71.69
2018-05-15T05:00:24.195Z,71.18
2018-05-15T05:02:53.859Z,71.04
2018-05-15T05:05:23.555Z,70.65
2018-05-15T05:07:53.180Z,71.17
2018-05-15T05:10:22.597Z,65.82
2018-05-15T05:12:52.236Z,62.86
2018-05-15T05:15:21.873Z,61.97
2018-05-15T05:17:51.557Z,62.02
2018-05-15T05:20:21.189Z,62.26
2018-05-15T05:22:50.815Z,61.63
2018-05-15T05:25:20.451Z,62.23
2018-05-15T05:27:50.084Z,60.95
2018-05-15T05:30:19.769Z,59.80
2018-05-15T05:32:49.386Z,55.23
2018-05-15T05:35:19.007Z,50.18
2018-05-15T05:37:48.643Z,46.11
2018-05-15T05:40:18.264Z,44.85
2018-05-15T05:42:47.729Z,42.29
2018-05-15T05:45:17.360Z,39.43
2018-05-15T05:47:46.979Z,37.00
2018-05-15T05:50:17.159Z,34.86
2018-05-15T05:52:47.367Z,32.22
2018-05-15T05:55:17.603Z,32.67
2018-05-15T05:57:47.786Z,32.15
2018-05-15T06:00:18.017Z,30.41
2018-05-15T06:02:48.224Z,30.45
2018-05-15T06:05:18.461Z,27.94
2018-05-15T06:07:48.666Z,26.61
2018-05-15T06:10:18.568Z,24.55
2018-05-15T06:12:48.815Z,23.64
2018-05-15T06:15:19.092Z,22.95
2018-05-15T06:17:49.337Z,22.82
2018-05-15T06:20:22.272Z,23.30
2018-05-15T06:22:52.510Z,23.82
2018-05-15T06:25:22.710Z,22.46
2018-05-15T06:27:52.936Z,23.07
2018-05-15T06:30:22.878Z,23.79
2018-05-15T06:32:53.080Z,22.92
2018-05-15T06:35:23.314Z,22.73
2018-05-15T06:37:53.947Z,23.36
2018-05-15T06:40:24.188Z,22.25
2018-05-15T06:42:54.385Z,21.39
2018-05-15T06:45:24.632Z,21.87
2018-05-15T06:47:54.543Z,22.61
2018-05-15T06:50:24.740Z,23.32
2018-05-15T06:52:55.003Z,25.67
2018-05-15T06:55:25.198Z,27.41
2018-05-15T06:57:55.439Z,28.02
2018-05-15T07:00:25.719Z,26.92
2018-05-15T07:02:55.950Z,25.36
2018-05-15T07:05:26.151Z,24.63
2018-05-15T07:07:55.801Z,23.57
2018-05-15T07:10:26.036Z,22.75
2018-05-15T07:12:56.243Z,21.62
2018-05-15T07:15:26.465Z,22.88
2018-05-15T07:17:56.659Z,22.01
2018-05-15T07:20:26.851Z,21.78
2018-05-15T07:22:57.087Z,22.51
2018-05-15T07:25:27.287Z,24.06
2018-05-15T07:27:57.501Z,24.03
2018-05-15T07:30:27.702Z,23.57
2018-05-15T07:32:57.904Z,25.79
2018-05-15T07:35:28.148Z,25.25
2018-05-15T07:37:58.368Z,24.60
2018-05-15T07:40:28.584Z,23.74
2018-05-15T07:42:58.789Z,22.78
2018-05-15T07:45:29.048Z,22.26
2018-05-15T07:47:59.246Z,22.16
2018-05-15T07:50:29.509Z,23.17
2018-05-15T07:52:59.702Z,24.66
2018-05-15T07:55:29.916Z,26.25
2018-05-15T07:58:00.115Z,25.68
2018-05-15T08:00:30.341Z,25.92
2018-05-15T08:03:00.603Z,27.60
2018-05-15T08:05:30.805Z,29.38
2018-05-15T08:08:01.042Z,31.91
2018-05-15T08:10:31.247Z,31.47
2018-05-15T08:13:00.898Z,30.67
2018-05-15T08:15:30.538Z,33.14
2018-05-15T08:18:00.175Z,35.53
2018-05-15T08:20:29.847Z,36.72
2018-05-15T08:22:59.511Z,38.08
2018-05-15T08:25:29.144Z,36.45
2018-05-15T08:27:58.782Z,34.87
2018-05-15T08:30:28.411Z,31.87
2018-05-15T08:32:58.075Z,29.24
2018-05-15T08:35:27.692Z,28.46
2018-05-15T08:37:57.914Z,28.53
2018-05-15T08:40:28.143Z,29.05
2018-05-15T08:42:57.755Z,27.98
2018-05-15T08:45:27.473Z,30.32
2018-05-15T08:47:57.302Z,33.13
2018-05-15T08:50:26.931Z,32.88
2018-05-15T08:52:56.540Z,31.56
2018-05-15T08:55:26.198Z,29.47
2018-05-15T08:57:56.443Z,26.91
2018-05-15T09:00:26.060Z,27.18
2018-05-15T09:02:56.267Z,28.15
2018-05-15T09:05:26.464Z,27.36
2018-05-15T09:07:56.332Z,26.76
2018-05-15T09:10:25.995Z,28.51
2018-05-15T09:12:55.883Z,30.29
2018-05-15T09:15:25.556Z,31.63
2018-05-15T09:17:55.261Z,33.31
2018-05-15T09:20:24.883Z,34.91
2018-05-15T09:22:54.512Z,35.57
2018-05-15T09:25:24.139Z,35.61
2018-05-15T09:27:53.799Z,36.47
2018-05-15T09:30:23.423Z,36.03
2018-05-15T09:32:53.039Z,35.89
2018-05-15T09:35:22.651Z,35.89
2018-05-15T09:37:52.266Z,35.99
2018-05-15T09:40:21.940Z,37.57
2018-05-15T09:42:51.577Z,38.01
2018-05-15T09:45:21.184Z,38.52
2018-05-15T09:47:51.210Z,37.74
2018-05-15T09:50:20.843Z,36.92
2018-05-15T09:52:50.514Z,37.12
2018-05-15T09:55:20.168Z,37.64
2018-05-15T09:57:49.791Z,37.24
2018-05-15T10:00:24.931Z,35.35
2018-05-15T10:02:54.784Z,35.55
2018-05-15T10:05:24.445Z,35.34
2018-05-15T10:07:54.122Z,35.22
2018-05-15T10:10:23.936Z,35.04
2018-05-15T10:12:53.582Z,36.06
2018-05-15T10:15:23.755Z,35.47
2018-05-15T10:17:53.453Z,36.33
2018-05-15T10:20:23.066Z,36.52
2018-05-15T10:22:53.524Z,37.06
2018-05-15T10:25:23.144Z,37.74
2018-05-15T10:27:53.579Z,38.60
2018-05-15T10:30:23.338Z,37.63
2018-05-15T10:32:52.947Z,36.55
2018-05-15T10:35:22.610Z,34.13
2018-05-15T10:37:52.227Z,35.22
2018-05-15T10:40:21.856Z,35.98
2018-05-15T10:42:52.198Z,36.51
2018-05-15T10:45:21.574Z,37.32
2018-05-15T10:47:51.227Z,38.40
2018-05-15T10:50:20.844Z,38.83
2018-05-15T10:52:50.459Z,39.75
2018-05-15T10:55:20.076Z,40.01
2018-05-15T10:57:49.695Z,39.88
2018-05-15T11:00:19.372Z,40.18
2018-05-15T11:02:49.020Z,38.67
2018-05-15T11:05:18.652Z,38.28
2018-05-15T11:07:48.439Z,39.18
2018-05-15T11:10:18.062Z,38.95
2018-05-15T11:12:47.810Z,39.19
2018-05-15T11:15:17.663Z,38.73
2018-05-15T11:17:47.348Z,37.27
2018-05-15T11:20:28.006Z,37.38
2018-05-15T11:23:08.692Z,37.94
2018-05-15T11:25:38.032Z,38.73
2018-05-15T11:28:07.658Z,39.69
2018-05-15T11:30:37.353Z,40.96
2018-05-15T11:33:06.979Z,40.60
2018-05-15T11:35:36.671Z,40.25
2018-05-15T11:38:07.072Z,40.54
2018-05-15T11:40:36.696Z,40.37
2018-05-15T11:43:06.396Z,40.08
2018-05-15T11:45:36.011Z,39.82
2018-05-15T11:48:05.935Z,40.35
2018-05-15T11:50:36.396Z,41.28
2018-05-15T11:53:05.953Z,40.55
2018-05-15T11:55:35.481Z,39.14
2018-05-15T11:58:04.787Z,39.07
2018-05-15T12:00:34.570Z,39.40
2018-05-15T12:03:04.192Z,40.29
2018-05-15T12:05:33.821Z,40.48
2018-05-15T12:08:03.577Z,42.37
2018-05-15T12:10:33.337Z,42.18
2018-05-15T12:13:03.257Z,42.83
2018-05-15T12:15:32.874Z,42.80
2018-05-15T12:18:03.320Z,42.82
2018-05-15T12:20:32.986Z,43.05
2018-05-15T12:23:02.626Z,44.30
2018-05-15T12:25:32.244Z,43.39
2018-05-15T12:28:01.951Z,43.16
2018-05-15T12:30:31.743Z,41.96
2018-05-15T12:33:01.403Z,42.57
2018-05-15T12:35:31.047Z,42.30
2018-05-15T12:38:00.699Z,41.92
2018-05-15T12:40:30.327Z,42.18
2018-05-15T12:42:59.946Z,42.14
2018-05-15T12:45:29.616Z,42.27
2018-05-15T12:47:59.013Z,41.95
2018-05-15T12:50:28.868Z,40.21
2018-05-15T12:52:58.479Z,41.65
2018-05-15T12:55:28.101Z,41.75
2018-05-15T12:57:57.768Z,42.13
2018-05-15T13:00:27.405Z,42.26
2018-05-15T13:02:57.017Z,42.37
2018-05-15T13:05:26.649Z,41.70
2018-05-15T13:07:56.284Z,42.70
2018-05-15T13:10:25.722Z,42.63
2018-05-15T13:12:55.350Z,41.57
2018-05-15T13:15:24.974Z,42.75
2018-05-15T13:17:54.605Z,42.27
2018-05-15T13:20:24.276Z,42.34
2018-05-15T13:22:53.973Z,43.32
2018-05-15T13:25:23.639Z,42.50
2018-05-15T13:27:53.321Z,42.72
2018-05-15T13:30:23.696Z,42.05
2018-05-15T13:32:53.339Z,41.87
2018-05-15T13:35:23.057Z,41.80
2018-05-15T13:37:52.924Z,42.93
2018-05-15T13:40:22.613Z,44.50
2018-05-15T13:42:52.269Z,45.63
2018-05-15T13:45:21.652Z,44.90
2018-05-15T13:47:51.345Z,46.40
2018-05-15T13:50:20.970Z,46.29
2018-05-15T13:52:50.617Z,45.92
2018-05-15T13:55:20.259Z,44.77
2018-05-15T13:57:49.900Z,44.56
2018-05-15T14:00:19.567Z,45.09
2018-05-15T14:02:49.226Z,44.20
2018-05-15T14:05:18.843Z,43.98
2018-05-15T14:07:48.466Z,44.44
2018-05-15T14:10:18.119Z,44.07
2018-05-15T14:12:47.833Z,44.49
2018-05-15T14:15:17.450Z,44.29
2018-05-15T14:17:47.079Z,43.98
2018-05-15T14:20:16.726Z,44.27
2018-05-15T14:22:46.391Z,43.95
2018-05-15T14:25:16.070Z,44.29
2018-05-15T14:27:45.693Z,42.67
2018-05-15T14:30:15.326Z,42.47
2018-05-15T14:32:44.956Z,43.06
2018-05-15T14:35:14.584Z,43.27
2018-05-15T14:37:44.253Z,42.65
2018-05-15T14:40:13.884Z,42.79
2018-05-15T14:42:54.776Z,42.18
2018-05-15T14:45:25.164Z,42.42
2018-05-15T14:47:54.828Z,42.30
2018-05-15T14:50:24.476Z,41.41
2018-05-15T14:52:53.850Z,40.94
2018-05-15T14:55:23.248Z,42.18
2018-05-15T14:57:52.586Z,42.78
2018-05-15T15:00:22.208Z,42.90
2018-05-15T15:02:51.864Z,43.61
2018-05-15T15:05:21.489Z,44.41
2018-05-15T15:07:51.122Z,44.34
2018-05-15T15:10:20.796Z,44.14
2018-05-15T15:12:50.411Z,44.61
2018-05-15T15:15:20.027Z,44.38
2018-05-15T15:17:49.675Z,43.39
2018-05-15T15:20:19.303Z,43.70
2018-05-15T15:22:48.970Z,44.60
2018-05-15T15:25:18.605Z,45.04
2018-05-15T15:27:48.242Z,45.70
2018-05-15T15:30:17.855Z,45.47
2018-05-15T15:32:47.485Z,45.52
2018-05-15T15:35:17.142Z,44.83
2018-05-15T15:37:46.792Z,44.71
2018-05-15T15:40:16.414Z,44.65
2018-05-15T15:42:46.043Z,45.33
2018-05-15T15:45:16.428Z,45.37
2018-05-15T15:47:45.763Z,45.34
2018-05-15T15:50:15.400Z,45.57
2018-05-15T15:52:45.291Z,45.32
2018-05-15T15:55:14.915Z,46.29
2018-05-15T15:57:44.532Z,46.68
2018-05-15T16:00:14.156Z,46.87
2018-05-15T16:02:43.781Z,47.10
2018-05-15T16:05:13.462Z,47.77
2018-05-15T16:07:43.099Z,47.98
2018-05-15T16:10:12.811Z,48.23
2018-05-15T16:12:42.575Z,48.75
2018-05-15T16:15:12.195Z,48.64
2018-05-15T16:17:41.872Z,47.94
2018-05-15T16:20:11.499Z,48.13
2018-05-15T16:22:41.246Z,48.27
2018-05-15T16:25:11.440Z,48.42
2018-05-15T16:27:41.110Z,48.66
2018-05-15T16:30:10.781Z,50.02
2018-05-15T16:32:40.410Z,54.25
2018-05-15T16:35:10.060Z,58.01
2018-05-15T16:37:39.763Z,63.92
2018-05-15T16:40:09.552Z,71.80
2018-05-15T16:42:39.229Z,77.45
2018-05-15T16:45:08.892Z,85.30
2018-05-15T16:47:38.526Z,88.22
2018-05-15T16:50:08.184Z,91.85
2018-05-15T16:52:37.540Z,93.39
2018-05-15T16:55:07.227Z,93.34
2018-05-15T16:57:36.864Z,94.38
2018-05-15T17:00:06.549Z,93.80
2018-05-15T17:02:36.170Z,93.47
2018-05-15T17:05:05.790Z,93.10
2018-05-15T17:07:35.471Z,93.14
2018-05-15T17:10:05.102Z,92.40
2018-05-15T17:12:34.792Z,92.82
2018-05-15T17:15:04.414Z,91.66
2018-05-15T17:17:34.097Z,92.31
2018-05-15T17:20:03.790Z,92.23
2018-05-15T17:22:33.411Z,92.75
2018-05-15T17:25:03.062Z,91.83
2018-05-15T17:27:32.715Z,91.23
2018-05-15T17:30:02.366Z,91.24
2018-05-15T17:32:32.051Z,90.92
2018-05-15T17:35:01.693Z,91.35
2018-05-15T17:37:31.340Z,91.15
2018-05-15T17:40:00.991Z,91.72
2018-05-15T17:42:30.634Z,90.63
2018-05-15T17:45:00.358Z,90.99
2018-05-15T17:47:30.023Z,92.07
2018-05-15T17:49:59.868Z,91.45
2018-05-15T17:52:29.502Z,91.40
2018-05-15T17:54:59.144Z,91.49
2018-05-15T17:57:28.828Z,92.05
2018-05-15T17:59:58.525Z,91.51
2018-05-15T18:02:28.363Z,92.69
2018-05-15T18:04:58.012Z,92.72
2018-05-15T18:07:27.667Z,93.30
2018-05-15T18:09:57.399Z,93.77
2018-05-15T18:12:27.039Z,93.34
2018-05-15T18:14:56.687Z,93.35
2018-05-15T18:17:26.331Z,93.83
2018-05-15T18:19:55.975Z,92.87
2018-05-15T18:22:25.657Z,93.28
2018-05-15T18:24:55.309Z,92.84
2018-05-15T18:27:24.996Z,94.02
2018-05-15T18:29:54.802Z,94.63
2018-05-15T18:32:24.443Z,95.22
2018-05-15T18:34:54.129Z,94.52
2018-05-15T18:37:23.759Z,94.08
2018-05-15T18:39:53.386Z,94.41
2018-05-15T18:42:23.025Z,93.98
2018-05-15T18:44:52.690Z,93.46
2018-05-15T18:47:22.392Z,93.67
2018-05-15T18:49:52.019Z,94.13
2018-05-15T18:52:21.669Z,94.34
2018-05-15T18:54:51.316Z,94.54
2018-05-15T18:57:20.953Z,94.72
2018-05-15T18:59:50.629Z,94.48
2018-05-15T19:02:20.272Z,94.73
2018-05-15T19:04:49.924Z,94.74
2018-05-15T19:07:19.584Z,95.37
2018-05-15T19:09:50.250Z,95.35
2018-05-15T19:12:19.885Z,95.81
2018-05-15T19:14:49.529Z,96.01
2018-05-15T19:17:19.209Z,95.79
2018-05-15T19:19:48.840Z,96.11
2018-05-15T19:22:18.500Z,95.78
2018-05-15T19:24:48.124Z,94.75
2018-05-15T19:27:17.811Z,93.85
2018-05-15T19:29:47.668Z,93.52
2018-05-15T19:32:17.317Z,95.03
2018-05-15T19:34:52.296Z,97.24
2018-05-15T19:37:21.945Z,98.05
2018-05-15T19:39:51.357Z,98.64
2018-05-15T19:42:21.008Z,99.02
2018-05-15T19:44:50.654Z,99.41
2018-05-15T19:47:20.333Z,99.70
2018-05-15T19:49:49.967Z,99.65
2018-05-15T19:52:19.599Z,99.63
2018-05-15T19:54:49.240Z,99.42
2018-05-15T19:57:18.876Z,99.70
2018-05-15T19:59:48.563Z,99.93
2018-05-15T20:02:18.203Z,100.00
2018-05-15T20:04:47.843Z,100.00
2018-05-15T20:07:17.486Z,100.00
2018-05-15T20:09:47.136Z,100.00
2018-05-15T20:12:16.836Z,100.00
2018-05-15T20:14:46.470Z,100.00
2018-05-15T20:17:16.150Z,100.00
2018-05-15T20:19:45.770Z,100.00
2018-05-15T20:22:15.081Z,100.00
2018-05-15T20:24:44.757Z,100.00
2018-05-15T20:27:14.401Z,99.86
2018-05-15T20:29:44.067Z,99.37
2018-05-15T20:32:13.709Z,99.35
2018-05-15T20:34:43.347Z,99.50
2018-05-15T20:37:13.037Z,99.65
2018-05-15T20:39:42.667Z,99.20
2018-05-15T20:42:12.387Z,98.68
2018-05-15T20:44:42.310Z,98.74
2018-05-15T20:47:11.951Z,98.94
2018-05-15T20:49:41.633Z,99.08
2018-05-15T20:52:11.396Z,99.05
2018-05-15T20:54:41.196Z,98.79
2018-05-15T20:57:10.830Z,97.84
2018-05-15T20:59:40.481Z,97.97
2018-05-15T21:02:10.148Z,97.66
2018-05-15T21:04:39.794Z,97.46
2018-05-15T21:07:09.480Z,97.57
2018-05-15T21:09:39.128Z,97.48
2018-05-15T21:12:08.777Z,97.42
2018-05-15T21:14:38.484Z,97.49
2018-05-15T21:17:08.123Z,97.05
2018-05-15T21:19:37.772Z,96.98
2018-05-15T21:22:07.410Z,96.67
2018-05-15T21:24:37.063Z,96.44
2018-05-15T21:27:06.744Z,96.68
2018-05-15T21:29:36.375Z,95.94
2018-05-15T21:32:06.074Z,95.71
2018-05-15T21:34:35.717Z,95.09
2018-05-15T21:37:05.402Z,95.51
2018-05-15T21:39:35.033Z,95.72
2018-05-15T21:42:04.681Z,95.56
2018-05-15T21:44:34.371Z,95.10
2018-05-15T21:47:04.030Z,94.98
2018-05-15T21:49:33.664Z,95.01
2018-05-15T21:52:03.311Z,94.87
2018-05-15T21:54:32.975Z,95.15
2018-05-15T21:57:02.660Z,94.55
2018-05-15T21:59:32.299Z,94.32
2018-05-15T22:02:01.961Z,94.18
2018-05-15T22:04:31.586Z,93.83
2018-05-15T22:07:01.216Z,94.15
2018-05-15T22:09:31.118Z,93.99
2018-05-15T22:12:12.049Z,94.17
2018-05-15T22:14:58.610Z,94.23
2018-05-15T22:17:45.171Z,94.03
2018-05-15T22:20:32.049Z,94.19
2018-05-15T22:23:06.396Z,93.88
2018-05-15T22:25:35.506Z,94.00
2018-05-15T22:28:04.859Z,94.09
2018-05-15T22:30:34.227Z,94.68
2018-05-15T22:33:03.884Z,94.64
2018-05-15T22:35:33.511Z,93.96
2018-05-15T22:38:03.190Z,93.69
2018-05-15T22:40:32.824Z,94.13
2018-05-15T22:43:02.464Z,93.87
2018-05-15T22:45:32.113Z,94.10
2018-05-15T22:48:01.745Z,94.27
2018-05-15T22:50:31.421Z,94.43
2018-05-15T22:53:00.740Z,94.20
2018-05-15T22:55:30.390Z,94.12
2018-05-15T22:58:00.028Z,94.06
2018-05-15T23:00:29.655Z,94.58
2018-05-15T23:02:59.344Z,94.98
2018-05-15T23:05:28.976Z,94.83
2018-05-15T23:07:58.629Z,94.75
2018-05-15T23:10:28.258Z,94.78
2018-05-15T23:12:57.899Z,95.03
2018-05-15T23:15:27.579Z,94.76
2018-05-15T23:17:57.234Z,94.69
2018-05-15T23:20:26.871Z,94.89
2018-05-15T23:22:56.513Z,95.43
2018-05-15T23:25:26.269Z,95.75
2018-05-15T23:27:55.627Z,96.10
2018-05-15T23:30:25.268Z,96.14
2018-05-15T23:32:54.890Z,96.44
2018-05-15T23:35:24.522Z,96.95
2018-05-15T23:37:54.169Z,97.13
2018-05-15T23:40:23.852Z,97.26
2018-05-15T23:42:53.487Z,97.38
2018-05-15T23:45:23.124Z,97.43
2018-05-15T23:47:52.745Z,97.73
2018-05-15T23:50:22.368Z,98.10
2018-05-15T23:52:52.056Z,97.81
2018-05-15T23:55:21.719Z,97.63
2018-05-15T23:57:51.392Z,97.56
